createdAt,value
2023-04-18T00:00:40.448Z,17.500
2023-04-18T00:01:40.611Z,16.100
2023-04-18T00:02:40.399Z,17.000
2023-04-18T00:03:40.897Z,18.200
2023-04-18T00:04:41.670Z,18.200
2023-04-18T00:05:40.271Z,17.600
2023-04-18T00:06:40.460Z,17.600
2023-04-18T00:07:40.703Z,17.000
2023-04-18T00:08:39.791Z,18.500
2023-04-18T00:09:40.284Z,19.700
2023-04-18T00:10:40.645Z,18.200
2023-04-18T00:11:41.810Z,17.300
2023-04-18T00:12:39.910Z,18.000
2023-04-18T00:13:40.068Z,17.400
2023-04-18T00:14:40.210Z,17.200
2023-04-18T00:15:40.316Z,17.000
2023-04-18T00:16:40.553Z,16.200
2023-04-18T00:17:40.942Z,17.900
2023-04-18T00:18:40.174Z,16.700
2023-04-18T00:19:40.389Z,17.900
2023-04-18T00:20:40.685Z,16.700
2023-04-18T00:22:40.188Z,19.000
2023-04-18T00:23:40.432Z,18.100
2023-04-18T00:24:40.620Z,18.400
2023-04-18T00:25:40.783Z,18.000
2023-04-18T00:26:39.955Z,17.200
2023-04-18T00:27:40.153Z,17.800
2023-04-18T00:28:40.611Z,15.700
2023-04-18T00:29:40.817Z,15.100
2023-04-18T00:30:39.993Z,16.700
2023-04-18T00:31:40.656Z,15.700
2023-04-18T00:32:39.920Z,15.600
2023-04-18T00:33:40.359Z,15.400
2023-04-18T00:34:40.512Z,16.600
2023-04-18T00:35:40.658Z,16.700
2023-04-18T00:36:39.886Z,16.000
2023-04-18T00:37:40.435Z,16.600
2023-04-18T00:38:40.588Z,16.200
2023-04-18T00:39:40.768Z,17.000
2023-04-18T00:41:40.312Z,14.900
2023-04-18T00:42:40.498Z,17.900
2023-04-18T00:43:40.746Z,16.900
2023-04-18T00:45:40.171Z,15.400
2023-04-18T00:46:40.478Z,16.200
2023-04-18T00:47:40.861Z,16.800
2023-04-18T00:49:40.289Z,16.500
2023-04-18T00:50:40.532Z,15.300
2023-04-18T00:51:40.817Z,15.000
2023-04-18T00:52:40.024Z,16.300
2023-04-18T00:53:40.273Z,16.000
2023-04-18T00:54:40.449Z,15.200
2023-04-18T00:55:40.653Z,16.400
2023-04-18T00:56:39.770Z,16.200
2023-04-18T00:57:39.960Z,23.100
2023-04-18T00:58:40.114Z,17.400
2023-04-18T00:59:40.290Z,19.000
2023-04-18T01:00:40.543Z,14.900
2023-04-18T01:01:40.946Z,15.600
2023-04-18T01:02:40.858Z,18.200
2023-04-18T01:03:41.257Z,22.900
2023-04-18T01:04:40.457Z,19.600
2023-04-18T01:05:39.788Z,15.700
2023-04-18T01:06:39.976Z,15.600
2023-04-18T01:07:40.152Z,15.300
2023-04-18T01:08:40.569Z,16.200
2023-04-18T01:09:40.705Z,15.700
2023-04-18T01:10:39.857Z,16.800
2023-04-18T01:11:39.965Z,16.000
2023-04-18T01:12:40.159Z,15.800
2023-04-18T01:13:40.269Z,14.800
2023-04-18T01:14:40.514Z,15.600
2023-04-18T01:15:40.726Z,15.800
2023-04-18T01:17:40.457Z,15.000
2023-04-18T01:18:40.785Z,16.300
2023-04-18T01:19:39.941Z,16.100
2023-04-18T01:20:40.217Z,14.700
2023-04-18T01:21:40.377Z,15.100
2023-04-18T01:22:40.540Z,15.700
2023-04-18T01:23:40.763Z,15.900
2023-04-18T01:24:39.883Z,19.000
2023-04-18T01:25:40.051Z,15.300
2023-04-18T01:26:40.259Z,14.500
2023-04-18T01:27:40.455Z,15.100
2023-04-18T01:28:40.656Z,15.200
2023-04-18T01:29:40.866Z,14.200
2023-04-18T01:31:40.502Z,16.100
2023-04-18T01:32:39.997Z,14.700
2023-04-18T01:33:40.335Z,14.700
2023-04-18T01:34:40.499Z,20.200
2023-04-18T01:35:40.749Z,25.300
2023-04-18T01:36:39.837Z,16.300
2023-04-18T01:37:40.469Z,14.000
2023-04-18T01:38:40.704Z,16.200
2023-04-18T01:39:39.868Z,15.300
2023-04-18T01:40:40.082Z,14.600
2023-04-18T01:41:40.244Z,15.700
2023-04-18T01:42:40.348Z,15.700
2023-04-18T01:43:40.524Z,14.900
2023-04-18T01:44:40.679Z,14.900
2023-04-18T01:45:39.881Z,15.400
2023-04-18T01:46:40.283Z,14.900
2023-04-18T01:47:40.811Z,14.900
2023-04-18T01:49:40.177Z,14.800
2023-04-18T01:50:40.369Z,15.000
2023-04-18T01:51:40.531Z,14.800
2023-04-18T01:52:40.744Z,15.300
2023-04-18T01:54:40.023Z,14.600
2023-04-18T01:55:40.399Z,14.500
2023-04-18T01:56:40.667Z,14.600
2023-04-18T01:57:39.853Z,14.700
2023-04-18T01:58:40.111Z,16.600
2023-04-18T01:59:40.272Z,14.600
2023-04-18T02:00:40.530Z,16.200
2023-04-18T02:01:41.183Z,16.000
2023-04-18T02:02:40.832Z,14.400
2023-04-18T02:03:41.289Z,14.600
2023-04-18T02:04:40.332Z,14.000
2023-04-18T02:05:40.677Z,15.600
2023-04-18T02:06:39.804Z,15.600
2023-04-18T02:07:39.997Z,14.900
2023-04-18T02:08:40.247Z,15.400
2023-04-18T02:09:40.386Z,14.700
2023-04-18T02:10:40.585Z,16.100
2023-04-18T02:11:40.773Z,13.900
2023-04-18T02:12:39.927Z,19.300
2023-04-18T02:13:40.194Z,15.800
2023-04-18T02:14:40.339Z,15.200
2023-04-18T02:15:40.509Z,14.100
2023-04-18T02:16:40.983Z,14.900
2023-04-18T02:17:40.295Z,14.700
2023-04-18T02:18:39.777Z,14.900
2023-04-18T02:19:39.905Z,14.300
2023-04-18T02:20:40.167Z,15.400
2023-04-18T02:21:40.352Z,14.700
2023-04-18T02:22:40.500Z,14.700
2023-04-18T02:23:40.658Z,14.900
2023-04-18T02:24:39.820Z,13.900
2023-04-18T02:25:40.020Z,14.300
2023-04-18T02:26:40.235Z,15.200
2023-04-18T02:27:40.411Z,14.700
2023-04-18T02:28:40.604Z,14.700
2023-04-18T02:29:40.771Z,14.300
2023-04-18T02:30:40.131Z,14.400
2023-04-18T02:31:40.504Z,14.300
2023-04-18T02:32:41.066Z,17.500
2023-04-18T02:33:40.227Z,14.300
2023-04-18T02:34:40.329Z,15.200
2023-04-18T02:35:40.518Z,15.700
2023-04-18T02:36:40.742Z,14.400
2023-04-18T02:37:39.894Z,14.700
2023-04-18T02:38:40.180Z,16.100
2023-04-18T02:39:40.408Z,14.700
2023-04-18T02:40:40.721Z,24.200
2023-04-18T02:41:39.892Z,14.700
2023-04-18T02:42:40.123Z,15.500
2023-04-18T02:43:40.268Z,15.300
2023-04-18T02:44:40.500Z,14.300
2023-04-18T02:45:40.770Z,14.700
2023-04-18T02:46:40.005Z,14.600
2023-04-18T02:47:47.306Z,17.800
2023-04-18T02:49:40.459Z,15.400
2023-04-18T02:50:40.723Z,15.500
2023-04-18T02:51:39.820Z,14.900
2023-04-18T02:52:40.044Z,13.700
2023-04-18T02:53:40.176Z,16.900
2023-04-18T02:54:40.560Z,14.500
2023-04-18T02:55:40.763Z,15.800
2023-04-18T02:56:39.955Z,14.000
2023-04-18T02:57:40.198Z,16.300
2023-04-18T02:58:40.572Z,16.300
2023-04-18T02:59:40.695Z,14.100
2023-04-18T03:00:39.868Z,13.900
2023-04-18T03:01:40.207Z,15.800
2023-04-18T03:02:41.109Z,14.800
2023-04-18T03:03:40.854Z,14.900
2023-04-18T03:04:40.082Z,14.800
2023-04-18T03:05:40.572Z,14.500
2023-04-18T03:06:40.816Z,14.300
2023-04-18T03:08:40.134Z,14.100
2023-04-18T03:09:40.584Z,14.500
2023-04-18T03:10:39.776Z,14.200
2023-04-18T03:11:40.055Z,14.600
2023-04-18T03:12:40.266Z,14.300
2023-04-18T03:13:40.576Z,14.400
2023-04-18T03:14:40.748Z,13.300
2023-04-18T03:15:40.043Z,14.200
2023-04-18T03:16:40.681Z,14.600
2023-04-18T03:17:39.916Z,15.200
2023-04-18T03:18:40.283Z,13.700
2023-04-18T03:19:40.496Z,14.400
2023-04-18T03:20:40.684Z,14.300
2023-04-18T03:21:39.883Z,14.100
2023-04-18T03:22:40.051Z,14.000
2023-04-18T03:23:40.250Z,15.000
2023-04-18T03:24:40.459Z,14.800
2023-04-18T03:25:40.687Z,14.800
2023-04-18T03:26:39.823Z,14.800
2023-04-18T03:27:40.002Z,13.900
2023-04-18T03:28:40.232Z,13.600
2023-04-18T03:29:40.406Z,15.500
2023-04-18T03:30:40.608Z,14.700
2023-04-18T03:31:40.940Z,15.000
2023-04-18T03:32:40.439Z,14.700
2023-04-18T03:33:40.009Z,15.100
2023-04-18T03:34:40.238Z,13.800
2023-04-18T03:35:40.560Z,14.700
2023-04-18T03:36:39.758Z,15.100
2023-04-18T03:37:39.868Z,14.300
2023-04-18T03:38:40.195Z,15.800
2023-04-18T03:39:40.297Z,14.100
2023-04-18T03:40:40.558Z,14.700
2023-04-18T03:41:40.708Z,14.500
2023-04-18T03:43:39.974Z,13.800
2023-04-18T03:44:40.211Z,14.800
2023-04-18T03:45:40.485Z,14.600
2023-04-18T03:46:40.816Z,14.000
2023-04-18T03:48:40.515Z,15.000
2023-04-18T03:49:40.759Z,14.200
2023-04-18T03:50:39.927Z,13.800
2023-04-18T03:51:40.097Z,14.400
2023-04-18T03:52:42.726Z,14.200
2023-04-18T03:53:39.824Z,15.100
2023-04-18T03:54:39.979Z,14.500
2023-04-18T03:55:40.150Z,14.600
2023-04-18T03:56:40.368Z,14.400
2023-04-18T03:57:41.387Z,14.300
2023-04-18T03:58:40.675Z,15.700
2023-04-18T03:59:39.785Z,14.900
2023-04-18T04:00:40.200Z,15.500
2023-04-18T04:01:40.409Z,14.700
2023-04-18T04:02:41.071Z,14.300
2023-04-18T04:03:41.544Z,14.900
2023-04-18T04:04:40.649Z,14.900
2023-04-18T04:05:40.080Z,14.900
2023-04-18T04:06:40.249Z,13.800
2023-04-18T04:07:40.529Z,15.800
2023-04-18T04:08:42.361Z,14.900
2023-04-18T04:10:40.756Z,14.600
2023-04-18T04:11:39.914Z,14.900
2023-04-18T04:12:40.092Z,15.700
2023-04-18T04:13:40.324Z,14.600
2023-04-18T04:14:40.586Z,14.900
2023-04-18T04:15:40.734Z,15.600
2023-04-18T04:16:39.918Z,14.800
2023-04-18T04:17:40.451Z,15.500
2023-04-18T04:19:39.948Z,15.200
2023-04-18T04:20:40.171Z,14.700
2023-04-18T04:21:40.464Z,14.900
2023-04-18T04:22:40.724Z,15.200
2023-04-18T04:23:39.922Z,15.300
2023-04-18T04:24:39.996Z,15.300
2023-04-18T04:25:40.328Z,14.600
2023-04-18T04:26:40.559Z,15.000
2023-04-18T04:27:40.880Z,15.500
2023-04-18T04:28:40.054Z,15.000
2023-04-18T04:29:40.224Z,15.700
2023-04-18T04:30:40.368Z,15.500
2023-04-18T04:31:40.628Z,15.000
2023-04-18T04:32:40.170Z,15.100
2023-04-18T04:33:40.472Z,16.000
2023-04-18T04:34:40.644Z,15.800
2023-04-18T04:35:39.865Z,15.100
2023-04-18T04:36:39.984Z,15.700
2023-04-18T04:37:40.245Z,15.700
2023-04-18T04:38:40.511Z,14.500
2023-04-18T04:39:40.866Z,15.200
2023-04-18T04:40:40.181Z,15.200
2023-04-18T04:41:40.352Z,15.700
2023-04-18T04:42:40.631Z,15.500
2023-04-18T04:44:40.250Z,15.400
2023-04-18T04:45:40.684Z,15.500
2023-04-18T04:46:40.163Z,15.400
2023-04-18T04:47:40.461Z,16.000
2023-04-18T04:49:39.948Z,15.500
2023-04-18T04:50:40.120Z,16.300
2023-04-18T04:51:40.369Z,15.600
2023-04-18T04:52:40.538Z,16.300
2023-04-18T04:53:40.725Z,15.400
2023-04-18T04:54:40.039Z,15.500
2023-04-18T04:55:40.216Z,15.700
2023-04-18T04:56:40.448Z,15.700
2023-04-18T04:57:40.641Z,15.700
2023-04-18T04:59:40.324Z,15.800
2023-04-18T05:00:40.580Z,15.900
2023-04-18T05:01:40.949Z,15.800
2023-04-18T05:02:40.717Z,16.700
2023-04-18T05:03:41.109Z,17.400
2023-04-18T05:04:40.728Z,16.600
2023-04-18T05:07:40.704Z,15.900
2023-04-18T05:09:40.036Z,15.900
2023-04-18T05:10:40.224Z,17.000
2023-04-18T05:11:40.339Z,15.700
2023-04-18T05:12:40.463Z,15.800
2023-04-18T05:13:40.717Z,16.300
2023-04-18T05:14:39.908Z,16.200
2023-04-18T05:15:40.131Z,17.600
2023-04-18T05:16:40.494Z,16.900
2023-04-18T05:17:40.957Z,16.500
2023-04-18T05:18:40.239Z,16.600
2023-04-18T05:19:40.447Z,16.300
2023-04-18T05:20:40.609Z,16.200
2023-04-18T05:21:39.813Z,17.200
2023-04-18T05:22:39.989Z,17.500
2023-04-18T05:23:40.182Z,17.300
2023-04-18T05:24:40.372Z,16.700
2023-04-18T05:25:40.789Z,16.700
2023-04-18T05:26:39.988Z,16.900
2023-04-18T05:27:40.233Z,16.900
2023-04-18T05:28:40.419Z,16.900
2023-04-18T05:29:40.637Z,16.500
2023-04-18T05:30:39.909Z,16.000
2023-04-18T05:31:40.265Z,18.000
2023-04-18T05:32:40.617Z,16.100
2023-04-18T05:34:40.216Z,16.500
2023-04-18T05:35:40.513Z,17.100
2023-04-18T05:36:40.763Z,16.900
2023-04-18T05:37:39.940Z,16.700
2023-04-18T05:38:40.106Z,16.600
2023-04-18T05:39:40.781Z,16.600
2023-04-18T05:41:40.248Z,16.300
2023-04-18T05:42:40.375Z,16.300
2023-04-18T05:43:40.953Z,16.800
2023-04-18T05:44:40.811Z,16.100
2023-04-18T05:46:40.373Z,16.200
2023-04-18T05:47:40.917Z,17.700
2023-04-18T05:48:40.159Z,17.000
2023-04-18T05:49:40.293Z,17.200
2023-04-18T05:50:40.463Z,16.800
2023-04-18T05:51:41.379Z,16.600
2023-04-18T05:52:40.646Z,16.900
2023-04-18T05:54:40.051Z,17.000
2023-04-18T05:55:40.209Z,16.200
2023-04-18T05:56:40.433Z,17.400
2023-04-18T05:57:40.620Z,16.600
2023-04-18T05:58:40.781Z,18.300
2023-04-18T05:59:40.048Z,16.400
2023-04-18T06:00:40.244Z,18.300
2023-04-18T06:01:40.509Z,16.600
2023-04-18T06:02:41.184Z,17.300
2023-04-18T06:03:40.330Z,16.300
2023-04-18T06:04:40.919Z,16.500
2023-04-18T06:05:40.764Z,16.700
2023-04-18T06:06:40.237Z,17.200
2023-04-18T06:07:40.427Z,15.500
2023-04-18T06:08:40.630Z,16.500
2023-04-18T06:09:40.889Z,15.700
2023-04-18T06:10:40.054Z,17.400
2023-04-18T06:11:40.315Z,17.100
2023-04-18T06:12:40.440Z,17.100
2023-04-18T06:13:40.692Z,17.400
2023-04-18T06:14:39.928Z,16.700
2023-04-18T06:15:40.063Z,17.400
2023-04-18T06:16:40.610Z,17.100
2023-04-18T06:17:40.094Z,16.800
2023-04-18T06:18:40.464Z,16.300
2023-04-18T06:19:40.632Z,16.800
2023-04-18T06:20:40.844Z,16.600
2023-04-18T06:21:40.005Z,17.500
2023-04-18T06:22:40.290Z,16.800
2023-04-18T06:24:40.745Z,16.700
2023-04-18T06:26:40.396Z,15.700
2023-04-18T06:27:47.703Z,15.900
2023-04-18T06:28:39.884Z,15.800
2023-04-18T06:29:40.172Z,15.600
2023-04-18T06:30:40.309Z,16.000
2023-04-18T06:31:40.605Z,16.500
2023-04-18T06:32:40.319Z,15.100
2023-04-18T06:33:40.683Z,15.500
2023-04-18T06:34:39.877Z,15.300
2023-04-18T06:35:42.371Z,15.600
2023-04-18T06:36:40.519Z,15.000
2023-04-18T06:37:40.622Z,15.000
2023-04-18T06:38:40.811Z,15.300
2023-04-18T06:39:40.093Z,15.700
2023-04-18T06:40:40.342Z,15.600
2023-04-18T06:41:40.516Z,14.800
2023-04-18T06:42:40.784Z,16.000
2023-04-18T06:44:39.812Z,14.300
2023-04-18T06:45:40.278Z,14.500
2023-04-18T06:46:40.836Z,14.100
2023-04-18T06:47:40.207Z,14.600
2023-04-18T06:48:40.424Z,13.900
2023-04-18T06:49:42.268Z,14.400
2023-04-18T06:51:40.744Z,14.000
2023-04-18T06:52:39.953Z,14.500
2023-04-18T06:53:40.206Z,14.600
2023-04-18T06:54:40.596Z,13.700
2023-04-18T06:55:40.610Z,13.700
2023-04-18T06:56:40.776Z,13.900
2023-04-18T06:57:39.969Z,13.200
2023-04-18T06:58:40.168Z,14.200
2023-04-18T06:59:40.406Z,13.600
2023-04-18T07:00:40.645Z,14.000
2023-04-18T07:02:40.633Z,12.800
2023-04-18T07:03:44.388Z,14.100
2023-04-18T07:04:40.492Z,14.000
2023-04-18T07:05:40.911Z,13.300
2023-04-18T07:06:40.248Z,13.000
2023-04-18T07:07:40.658Z,13.200
2023-04-18T07:08:39.970Z,12.600
2023-04-18T07:09:40.335Z,12.700
2023-04-18T07:10:40.615Z,13.700
2023-04-18T07:12:40.011Z,13.300
2023-04-18T07:13:40.221Z,12.900
2023-04-18T07:14:40.541Z,13.200
2023-04-18T07:15:40.800Z,13.400
2023-04-18T07:16:40.126Z,13.200
2023-04-18T07:17:40.508Z,12.800
2023-04-18T07:18:50.660Z,12.900
2023-04-18T07:20:39.919Z,12.900
2023-04-18T07:21:40.162Z,12.100
2023-04-18T07:22:40.429Z,12.300
2023-04-18T07:23:40.588Z,12.900
2023-04-18T07:24:41.090Z,12.100
2023-04-18T07:25:40.313Z,12.600
2023-04-18T07:26:40.584Z,12.200
2023-04-18T07:27:40.790Z,12.100
2023-04-18T07:28:40.151Z,12.100
2023-04-18T07:29:40.467Z,11.900
2023-04-18T07:30:41.491Z,11.600
2023-04-18T07:32:41.732Z,11.500
2023-04-18T07:34:40.505Z,11.900
2023-04-18T07:35:40.757Z,11.300
2023-04-18T07:37:40.135Z,11.800
2023-04-18T07:38:40.384Z,12.400
2023-04-18T07:39:40.891Z,12.600
2023-04-18T07:40:40.132Z,12.100
2023-04-18T07:41:40.628Z,12.000
2023-04-18T07:42:40.353Z,12.700
2023-04-18T07:43:41.723Z,12.500
2023-04-18T07:44:40.671Z,13.000
2023-04-18T07:45:40.746Z,11.900
2023-04-18T07:46:40.817Z,12.200
2023-04-18T07:47:42.501Z,13.000
2023-04-18T07:49:40.485Z,11.400
2023-04-18T07:50:41.120Z,13.200
2023-04-18T07:51:41.836Z,12.900
2023-04-18T07:52:40.721Z,12.100
2023-04-18T07:54:40.690Z,12.900
2023-04-18T07:55:40.204Z,12.200
2023-04-18T07:56:40.497Z,12.700
2023-04-18T07:57:40.731Z,12.300
2023-04-18T07:59:40.322Z,12.200
2023-04-18T08:00:41.113Z,12.800
2023-04-18T08:01:40.680Z,11.500
2023-04-18T08:02:40.208Z,11.900
2023-04-18T08:03:40.720Z,12.900
2023-04-18T08:04:44.542Z,12.000
2023-04-18T08:05:41.116Z,12.400
2023-04-18T08:06:40.370Z,12.000
2023-04-18T08:07:40.733Z,12.600
2023-04-18T08:09:41.552Z,12.500
2023-04-18T08:10:40.947Z,12.600
2023-04-18T08:11:40.331Z,12.600
2023-04-18T08:12:40.636Z,11.800
2023-04-18T08:13:40.390Z,12.900
2023-04-18T08:14:40.552Z,11.600
2023-04-18T08:15:40.872Z,12.300
2023-04-18T08:16:40.383Z,12.400
2023-04-18T08:17:39.971Z,12.200
2023-04-18T08:18:40.297Z,12.700
2023-04-18T08:19:40.471Z,12.500
2023-04-18T08:20:40.876Z,12.300
2023-04-18T08:21:40.015Z,12.400
2023-04-18T08:22:50.380Z,11.900
2023-04-18T08:24:57.382Z,12.000
2023-04-18T08:26:46.257Z,11.200
2023-04-18T08:27:46.597Z,12.600
2023-04-18T08:28:46.618Z,12.200
2023-04-18T08:29:46.429Z,12.000
2023-04-18T08:30:46.924Z,11.300
2023-04-18T08:31:46.270Z,11.000
2023-04-18T08:32:46.731Z,11.700
2023-04-18T08:33:46.177Z,11.500
2023-04-18T08:34:46.363Z,11.900
2023-04-18T08:35:46.551Z,11.300
2023-04-18T08:36:46.802Z,11.300
2023-04-18T08:37:46.040Z,11.400
2023-04-18T08:38:46.256Z,10.900
2023-04-18T08:39:46.952Z,10.700
2023-04-18T08:40:46.180Z,11.400
2023-04-18T08:41:46.343Z,10.700
2023-04-18T08:42:46.561Z,10.700
2023-04-18T08:43:46.787Z,10.900
2023-04-18T08:44:46.111Z,10.900
2023-04-18T08:45:46.614Z,10.600
2023-04-18T08:46:46.069Z,10.500
2023-04-18T08:47:46.454Z,10.500
2023-04-18T08:48:45.939Z,10.100
2023-04-18T08:49:46.663Z,9.900
2023-04-18T08:50:45.862Z,10.300
2023-04-18T08:51:46.101Z,10.400
2023-04-18T08:52:47.180Z,10.400
2023-04-18T08:54:47.038Z,9.900
2023-04-18T08:55:46.333Z,10.200
2023-04-18T08:56:46.681Z,9.800
2023-04-18T08:57:45.937Z,11.100
2023-04-18T08:58:46.648Z,10.200
2023-04-18T08:59:47.165Z,10.200
2023-04-18T09:00:46.841Z,10.100
2023-04-18T09:01:46.289Z,9.900
2023-04-18T09:02:47.336Z,9.800
2023-04-18T09:04:46.429Z,10.800
2023-04-18T09:05:46.831Z,9.800
2023-04-18T09:06:46.027Z,9.400
2023-04-18T09:07:46.268Z,9.800
2023-04-18T09:08:46.524Z,9.200
2023-04-18T09:09:46.963Z,9.300
2023-04-18T09:10:46.796Z,9.400
2023-04-18T09:11:46.118Z,8.700
2023-04-18T09:12:46.385Z,8.400
2023-04-18T09:13:46.596Z,8.000
2023-04-18T09:14:45.861Z,8.100
2023-04-18T09:15:46.113Z,8.000
2023-04-18T09:16:46.499Z,8.200
2023-04-18T09:17:47.197Z,8.800
2023-04-18T09:19:45.973Z,7.900
2023-04-18T09:20:46.344Z,7.200
2023-04-18T09:21:46.558Z,7.700
2023-04-18T09:22:46.756Z,7.600
2023-04-18T09:23:45.897Z,7.300
2023-04-18T09:24:46.145Z,7.400
2023-04-18T09:25:46.308Z,8.100
2023-04-18T09:26:46.539Z,7.600
2023-04-18T09:27:45.792Z,7.400
2023-04-18T09:28:46.200Z,7.500
2023-04-18T09:29:46.969Z,9.000
2023-04-18T09:30:46.477Z,8.900
2023-04-18T09:31:47.086Z,10.400
2023-04-18T09:32:46.380Z,9.900
2023-04-18T09:33:46.852Z,9.000
2023-04-18T09:34:46.408Z,10.600
2023-04-18T09:35:46.737Z,9.000
2023-04-18T09:36:46.031Z,9.400
2023-04-18T09:37:46.546Z,8.700
2023-04-18T09:38:46.789Z,8.300
2023-04-18T09:40:46.154Z,8.000
2023-04-18T09:41:46.959Z,8.900
2023-04-18T09:42:46.156Z,8.200
2023-04-18T09:43:46.402Z,8.700
2023-04-18T09:44:48.433Z,8.300
2023-04-18T09:45:46.604Z,8.300
2023-04-18T09:48:46.250Z,8.000
2023-04-18T09:49:46.481Z,8.600
2023-04-18T09:50:46.684Z,8.300
2023-04-18T09:51:46.036Z,7.700
2023-04-18T09:52:46.184Z,7.500
2023-04-18T09:53:46.572Z,7.900
2023-04-18T09:54:47.732Z,8.300
2023-04-18T09:55:46.464Z,7.800
2023-04-18T09:56:46.682Z,8.100
2023-04-18T09:57:45.871Z,8.300
2023-04-18T09:58:46.444Z,8.000
2023-04-18T09:59:46.672Z,8.400
2023-04-18T10:00:46.939Z,8.200
2023-04-18T10:01:46.970Z,7.900
2023-04-18T10:02:46.606Z,7.700
2023-04-18T10:04:47.425Z,8.000
2023-04-18T10:06:46.495Z,7.800
2023-04-18T10:07:46.680Z,8.400
2023-04-18T10:09:46.434Z,7.800
2023-04-18T10:10:46.638Z,6.900
2023-04-18T10:11:46.086Z,7.600
2023-04-18T10:12:46.459Z,8.000
2023-04-18T10:13:46.875Z,7.500
2023-04-18T10:14:46.129Z,7.000
2023-04-18T10:15:48.278Z,7.700
2023-04-18T10:16:50.568Z,7.700
2023-04-18T10:17:52.619Z,8.100
2023-04-18T10:19:48.998Z,7.400
2023-04-18T10:20:49.605Z,8.200
2023-04-18T10:21:49.785Z,8.600
2023-04-18T10:22:48.973Z,7.600
2023-04-18T10:23:49.319Z,7.800
2023-04-18T10:24:49.740Z,7.500
2023-04-18T10:25:49.067Z,8.300
2023-04-18T10:26:49.357Z,7.900
2023-04-18T10:27:49.898Z,7.600
2023-04-18T10:28:49.055Z,7.800
2023-04-18T10:29:49.247Z,7.500
2023-04-18T10:30:49.435Z,8.000
2023-04-18T10:31:49.700Z,8.800
2023-04-18T10:32:49.175Z,7.800
2023-04-18T10:34:04.478Z,7.700
2023-04-18T10:35:55.620Z,8.500
2023-04-18T10:37:53.035Z,8.300
2023-04-18T10:38:53.331Z,8.200
2023-04-18T10:39:53.611Z,7.900
2023-04-18T10:40:52.916Z,7.900
2023-04-18T10:41:53.221Z,7.500
2023-04-18T10:42:53.405Z,7.700
2023-04-18T10:43:53.680Z,8.100
2023-04-18T10:44:52.941Z,7.800
2023-04-18T10:45:53.256Z,8.300
2023-04-18T10:46:58.660Z,7.400
2023-04-18T10:47:53.256Z,8.400
2023-04-18T10:48:54.405Z,8.000
2023-04-18T10:49:53.614Z,8.100
2023-04-18T10:52:53.389Z,7.400
2023-04-18T10:53:53.595Z,8.900
2023-04-18T10:55:53.471Z,8.400
2023-04-18T10:56:53.751Z,8.400
2023-04-18T10:57:52.936Z,8.300
2023-04-18T10:58:53.211Z,8.300
2023-04-18T10:59:53.645Z,8.400
2023-04-18T11:00:52.939Z,8.800
2023-04-18T11:01:53.780Z,8.800
2023-04-18T11:02:53.333Z,9.100
2023-04-18T11:03:53.709Z,9.500
2023-04-18T11:04:53.031Z,10.000
2023-04-18T11:05:54.086Z,9.400
2023-04-18T11:08:53.289Z,9.600
2023-04-18T11:09:53.509Z,10.300
2023-04-18T11:10:54.049Z,10.200
2023-04-18T11:11:53.326Z,10.200
2023-04-18T11:12:53.605Z,10.200
2023-04-18T11:13:52.851Z,10.000
2023-04-18T11:14:53.120Z,9.700
2023-04-18T11:15:53.356Z,10.500
2023-04-18T11:16:53.739Z,9.900
2023-04-18T11:18:53.710Z,10.600
2023-04-18T11:19:52.950Z,10.300
2023-04-18T11:20:53.124Z,9.700
2023-04-18T11:21:53.352Z,10.200
2023-04-18T11:22:53.892Z,9.800
2023-04-18T11:23:53.136Z,9.800
2023-04-18T11:24:53.303Z,10.200
2023-04-18T11:25:53.541Z,10.300
2023-04-18T11:26:52.972Z,10.200
2023-04-18T11:27:53.619Z,10.600
2023-04-18T11:28:52.948Z,10.400
2023-04-18T11:29:53.217Z,10.400
2023-04-18T11:30:53.508Z,10.100
2023-04-18T11:31:56.795Z,9.700
2023-04-18T11:33:53.328Z,10.800
2023-04-18T11:34:53.683Z,11.800
2023-04-18T11:35:52.888Z,10.900
2023-04-18T11:36:53.109Z,10.800
2023-04-18T11:37:53.530Z,11.900
2023-04-18T11:38:55.848Z,11.600
2023-04-18T11:39:53.141Z,11.300
2023-04-18T11:40:53.341Z,11.100
2023-04-18T11:41:53.691Z,11.800
2023-04-18T11:42:53.098Z,11.200
2023-04-18T11:43:53.417Z,11.300
2023-04-18T11:44:53.673Z,12.400
2023-04-18T11:45:52.836Z,13.700
2023-04-18T11:46:53.413Z,13.000
2023-04-18T11:47:53.826Z,12.100
2023-04-18T11:48:53.248Z,12.600
2023-04-18T11:49:55.237Z,12.000
2023-04-18T11:51:53.267Z,14.300
2023-04-18T11:52:53.669Z,13.700
2023-04-18T11:53:52.808Z,12.300
2023-04-18T11:54:53.004Z,13.600
2023-04-18T11:55:53.217Z,12.800
2023-04-18T11:56:53.405Z,11.100
2023-04-18T11:57:53.629Z,13.400
2023-04-18T11:58:52.913Z,20.600
2023-04-18T11:59:53.189Z,14.500
2023-04-18T12:00:53.443Z,12.800
2023-04-18T12:01:53.758Z,12.400
2023-04-18T12:03:53.420Z,14.000
2023-04-18T12:04:54.519Z,10.700
2023-04-18T12:05:55.366Z,11.000
2023-04-18T12:06:52.924Z,10.300
2023-04-18T12:07:53.100Z,10.000
2023-04-18T12:08:54.094Z,10.200
2023-04-18T12:09:53.453Z,10.900
2023-04-18T12:10:53.622Z,10.300
2023-04-18T12:11:53.856Z,10.600
2023-04-18T12:13:53.423Z,10.200
2023-04-18T12:14:53.712Z,10.900
2023-04-18T12:15:53.101Z,10.600
2023-04-18T12:16:53.529Z,10.500
2023-04-18T12:17:54.000Z,10.200
2023-04-18T12:18:53.377Z,10.600
2023-04-18T12:19:53.732Z,11.500
2023-04-18T12:20:52.921Z,10.600
2023-04-18T12:21:53.201Z,11.600
2023-04-18T12:22:53.481Z,10.800
2023-04-18T12:23:53.802Z,11.500
2023-04-18T12:24:53.066Z,10.900
2023-04-18T12:25:53.401Z,10.800
2023-04-18T12:26:53.701Z,10.200
2023-04-18T12:27:52.848Z,11.300
2023-04-18T12:28:53.150Z,11.200
2023-04-18T12:29:53.445Z,11.100
2023-04-18T12:30:53.804Z,11.700
2023-04-18T12:31:53.408Z,11.100
2023-04-18T12:34:52.865Z,10.400
2023-04-18T12:35:52.990Z,11.000
2023-04-18T12:36:53.256Z,10.400
2023-04-18T12:37:54.631Z,10.800
2023-04-18T12:38:52.846Z,9.700
2023-04-18T12:39:53.054Z,9.800
2023-04-18T12:40:53.281Z,9.800
2023-04-18T12:41:53.588Z,10.500
2023-04-18T12:42:53.540Z,9.700
2023-04-18T12:43:53.843Z,9.500
2023-04-18T12:44:53.055Z,10.000
2023-04-18T12:45:53.522Z,9.900
2023-04-18T12:46:53.036Z,9.700
2023-04-18T12:47:53.710Z,9.600
2023-04-18T12:48:53.103Z,10.400
2023-04-18T12:49:53.436Z,9.900
2023-04-18T12:50:53.735Z,9.900
2023-04-18T12:51:52.969Z,9.100
2023-04-18T12:52:53.305Z,9.500
2023-04-18T12:53:53.586Z,9.200
2023-04-18T12:54:53.842Z,9.600
2023-04-18T12:55:53.040Z,9.500
2023-04-18T12:56:53.743Z,10.200
2023-04-18T12:57:53.137Z,9.300
2023-04-18T12:58:53.372Z,9.600
2023-04-18T12:59:53.644Z,9.900
2023-04-18T13:01:53.740Z,10.100
2023-04-18T13:02:53.781Z,9.300
2023-04-18T13:04:04.283Z,9.500
2023-04-18T13:05:56.858Z,9.400
2023-04-18T13:06:56.162Z,10.000
2023-04-18T13:08:05.077Z,9.600
2023-04-18T13:09:57.356Z,9.200
2023-04-18T13:10:57.683Z,9.500
2023-04-18T13:11:57.140Z,10.000
2023-04-18T13:12:57.395Z,9.700
2023-04-18T13:13:57.663Z,10.300
2023-04-18T13:14:57.027Z,10.600
2023-04-18T13:15:57.380Z,10.200
2023-04-18T13:16:59.791Z,9.500
2023-04-18T13:17:57.476Z,10.100
2023-04-18T13:18:57.787Z,10.200
2023-04-18T13:19:57.016Z,10.600
2023-04-18T13:20:57.225Z,9.400
2023-04-18T13:21:57.548Z,9.600
2023-04-18T13:22:57.785Z,10.200
2023-04-18T13:23:56.985Z,9.700
2023-04-18T13:24:57.193Z,9.800
2023-04-18T13:25:57.536Z,10.300
2023-04-18T13:26:57.894Z,10.100
2023-04-18T13:27:58.016Z,10.500
2023-04-18T13:29:57.008Z,11.000
2023-04-18T13:30:57.863Z,10.200
2023-04-18T13:31:57.282Z,10.700
2023-04-18T13:32:59.172Z,10.500
2023-04-18T13:33:57.659Z,10.200
2023-04-18T13:34:56.988Z,10.300
2023-04-18T13:35:57.303Z,9.600
2023-04-18T13:36:59.167Z,11.100
2023-04-18T13:37:57.467Z,10.400
2023-04-18T13:38:57.734Z,10.400
2023-04-18T13:39:56.996Z,9.700
2023-04-18T13:41:08.828Z,10.900
2023-04-18T13:42:59.043Z,10.900